Time;durP1;ratioP1;P1;durP2;ratioP2;P2;SDS_P1;SDS_P2;PMS_P1;PMS_P2;Temp;Humidity;BMP_temperature;BMP_pressure;BME280_temperature;BME280_humidity;BME280_pressure;Samples;Min_cycle;Max_cycle;Signal;HPM_P1;HPM_P2
2022/06/29 00:00:17;;;;;;;4.05;1.42;;;20.90;54.40;;;;;;5014408;28;20038;-69
2022/06/29 00:02:44;;;;;;;5.65;1.73;;;20.90;55.00;;;;;;4995962;28;20092;-68
2022/06/29 00:05:15;;;;;;;3.92;1.30;;;20.90;54.40;;;;;;5032719;28;20033;-68
2022/06/29 00:07:42;;;;;;;3.10;1.42;;;20.90;54.50;;;;;;5009989;28;20170;-68
2022/06/29 00:10:10;;;;;;;3.95;1.63;;;20.80;54.40;;;;;;5014515;28;20346;-69
2022/06/29 00:12:36;;;;;;;4.35;1.60;;;20.80;54.50;;;;;;5012216;28;20018;-68
2022/06/29 00:15:02;;;;;;;3.95;1.58;;;20.80;54.50;;;;;;5013729;28;20366;-69
2022/06/29 00:17:30;;;;;;;5.07;1.70;;;20.80;54.50;;;;;;5001414;28;20057;-71
2022/06/29 00:19:57;;;;;;;4.97;1.60;;;20.80;54.60;;;;;;5016350;28;20497;-69
2022/06/29 00:22:23;;;;;;;4.40;1.85;;;20.80;54.70;;;;;;5014988;28;20061;-68
2022/06/29 00:24:48;;;;;;;5.05;1.80;;;20.70;54.70;;;;;;5016356;28;20068;-68
2022/06/29 00:27:15;;;;;;;4.80;1.80;;;20.70;54.90;;;;;;5014764;28;20033;-69
2022/06/29 00:29:41;;;;;;;3.70;1.45;;;20.70;54.90;;;;;;5014562;28;20036;-69
2022/06/29 00:32:07;;;;;;;4.63;1.60;;;20.60;55.10;;;;;;5014999;28;20061;-69
2022/06/29 00:34:33;;;;;;;4.53;1.70;;;20.60;55.10;;;;;;5016680;28;20029;-70
2022/06/29 00:36:59;;;;;;;3.72;1.38;;;20.70;55.00;;;;;;5015133;28;20026;-70
2022/06/29 00:39:25;;;;;;;4.13;1.70;;;20.70;55.00;;;;;;5014798;28;20037;-69
2022/06/29 00:41:50;;;;;;;6.00;1.60;;;20.60;55.00;;;;;;5014975;28;20095;-70
2022/06/29 00:44:17;;;;;;;3.15;1.15;;;20.60;55.00;;;;;;5015715;28;20076;-69
2022/06/29 00:46:49;;;;;;;2.95;1.35;;;20.60;55.00;;;;;;5013571;28;20328;-70
2022/06/29 00:49:16;;;;;;;4.63;1.67;;;20.60;55.10;;;;;;5014731;28;20037;-67
2022/06/29 00:51:46;;;;;;;3.92;1.70;;;20.60;55.40;;;;;;5014182;28;20363;-68
2022/06/29 00:54:20;;;;;;;2.90;1.48;;;20.50;55.40;;;;;;5017688;28;20087;-68
2022/06/29 00:56:47;;;;;;;3.70;1.33;;;20.50;55.50;;;;;;5026026;28;20053;-68
2022/06/29 00:59:18;;;;;;;4.32;1.60;;;20.50;55.50;;;;;;5031337;28;20090;-69
2022/06/29 01:01:44;;;;;;;3.17;1.45;;;20.40;55.40;;;;;;5032928;28;20025;-68
2022/06/29 01:04:09;;;;;;;4.07;1.40;;;20.40;55.40;;;;;;5029560;28;20043;-68
2022/06/29 01:06:35;;;;;;;2.50;1.35;;;20.40;55.50;;;;;;5029797;28;20034;-69
2022/06/29 01:09:03;;;;;;;3.88;1.52;;;20.40;55.50;;;;;;5014263;28;20124;-68
2022/06/29 01:11:29;;;;;;;3.90;1.67;;;20.40;55.70;;;;;;5031520;28;20025;-68
2022/06/29 01:13:55;;;;;;;3.88;1.50;;;20.40;55.80;;;;;;5025106;28;20083;-70
2022/06/29 01:16:21;;;;;;;3.75;1.42;;;20.30;55.80;;;;;;5033174;28;20026;-70
2022/06/29 01:18:46;;;;;;;4.05;1.80;;;20.30;55.80;;;;;;5012138;28;20033;-70
2022/06/29 01:21:13;;;;;;;3.72;1.50;;;20.30;56.00;;;;;;5014521;28;20103;-67
2022/06/29 01:23:39;;;;;;;3.63;1.60;;;20.30;56.10;;;;;;5015133;28;20037;-68
2022/06/29 01:26:07;;;;;;;3.47;1.55;;;20.30;56.20;;;;;;5025015;28;20030;-67
2022/06/29 01:28:33;;;;;;;4.97;1.77;;;20.20;56.20;;;;;;5018208;28;20083;-68
2022/06/29 01:30:59;;;;;;;4.32;1.70;;;20.20;56.40;;;;;;5029876;28;20029;-68
2022/06/29 01:33:25;;;;;;;5.93;1.98;;;20.20;56.70;;;;;;5018891;28;20037;-69
2022/06/29 01:35:51;;;;;;;2.80;1.42;;;20.20;56.70;;;;;;5014747;28;20029;-68
2022/06/29 01:38:20;;;;;;;5.63;2.00;;;20.20;56.80;;;;;;5012017;28;20026;-68
2022/06/29 01:40:46;;;;;;;4.68;1.48;;;20.10;56.80;;;;;;5015516;28;20049;-68
2022/06/29 01:43:12;;;;;;;2.35;1.38;;;20.10;57.00;;;;;;5012890;28;20061;-68
2022/06/29 01:45:37;;;;;;;5.15;1.90;;;20.10;57.20;;;;;;5015468;28;20018;-69
2022/06/29 01:48:04;;;;;;;5.20;1.90;;;20.00;57.10;;;;;;5010693;28;20025;-69
2022/06/29 01:50:30;;;;;;;3.10;1.58;;;20.00;57.10;;;;;;5015047;28;20037;-69
2022/06/29 01:52:56;;;;;;;3.20;1.60;;;20.00;57.20;;;;;;5012942;28;20030;-68
2022/06/29 01:55:21;;;;;;;3.17;1.65;;;20.00;57.50;;;;;;5012734;28;20036;-68
2022/06/29 01:57:47;;;;;;;4.00;1.67;;;19.90;57.70;;;;;;5015722;28;20042;-69
2022/06/29 02:00:13;;;;;;;3.95;1.63;;;19.90;57.60;;;;;;5018568;28;20021;-68
2022/06/29 02:02:39;;;;;;;6.68;1.88;;;19.90;57.60;;;;;;5021624;28;20026;-68
2022/06/29 02:05:05;;;;;;;3.85;1.98;;;19.90;57.70;;;;;;5014166;28;20092;-68
2022/06/29 02:07:30;;;;;;;3.85;1.90;;;19.90;57.80;;;;;;5020976;28;20034;-68
2022/06/29 02:09:56;;;;;;;3.63;1.88;;;19.80;57.80;;;;;;5011550;28;20037;-68
2022/06/29 02:12:22;;;;;;;4.60;1.95;;;19.80;57.70;;;;;;5018186;28;20474;-68
2022/06/29 02:14:47;;;;;;;4.03;1.95;;;19.80;58.00;;;;;;5025868;28;20034;-68
2022/06/29 02:17:13;;;;;;;5.38;2.30;;;19.80;58.20;;;;;;5022141;28;20025;-68
2022/06/29 02:19:39;;;;;;;3.28;1.85;;;19.80;58.20;;;;;;5001643;28;20034;-68
2022/06/29 02:22:05;;;;;;;5.20;2.15;;;19.80;58.20;;;;;;5027075;28;20501;-68
2022/06/29 02:24:31;;;;;;;5.47;1.95;;;19.70;58.20;;;;;;5018833;28;20033;-68
2022/06/29 02:26:57;;;;;;;3.95;2.08;;;19.70;58.30;;;;;;5023479;28;20435;-68
2022/06/29 02:29:22;;;;;;;6.03;2.00;;;19.70;58.40;;;;;;5010324;28;20033;-68
2022/06/29 02:34:44;;;;;;;8.23;2.47;;;19.60;58.60;;;;;;5021953;28;20288;-68
2022/06/29 02:37:14;;;;;;;4.85;1.83;;;19.60;58.80;;;;;;5020197;28;20360;-68
2022/06/29 02:39:42;;;;;;;4.53;2.28;;;19.60;58.80;;;;;;5005478;28;20037;-68
2022/06/29 02:42:09;;;;;;;6.50;2.33;;;19.60;58.80;;;;;;5022961;28;20048;-67
2022/06/29 02:44:35;;;;;;;3.97;1.90;;;19.60;58.90;;;;;;5020998;28;20041;-67
2022/06/29 02:47:01;;;;;;;4.63;2.08;;;19.60;59.00;;;;;;5021496;28;20038;-67
2022/06/29 02:49:27;;;;;;;4.82;1.83;;;19.50;59.10;;;;;;5015978;28;20034;-67
2022/06/29 02:51:52;;;;;;;5.53;2.53;;;19.50;59.30;;;;;;5028715;28;20072;-68
2022/06/29 02:54:18;;;;;;;5.75;2.17;;;19.50;59.30;;;;;;5022789;28;20037;-67
2022/06/29 02:56:44;;;;;;;6.55;1.92;;;19.50;59.20;;;;;;5021147;28;20022;-67
2022/06/29 02:59:09;;;;;;;4.80;2.33;;;19.50;59.30;;;;;;5015348;28;20113;-68
2022/06/29 03:01:35;;;;;;;5.43;2.20;;;19.40;59.50;;;;;;5016153;28;20030;-67
2022/06/29 03:04:01;;;;;;;6.80;1.88;;;19.40;59.40;;;;;;5013347;28;20073;-67
2022/06/29 03:06:26;;;;;;;4.45;2.30;;;19.40;59.50;;;;;;5018654;28;20037;-67
2022/06/29 03:08:52;;;;;;;6.10;2.60;;;19.40;59.80;;;;;;5019774;28;20052;-67
2022/06/29 03:11:18;;;;;;;5.65;2.08;;;19.30;59.70;;;;;;5019951;28;20029;-67
2022/06/29 03:13:43;;;;;;;5.30;2.40;;;19.30;59.60;;;;;;4997418;28;20036;-67
2022/06/29 03:16:09;;;;;;;4.32;2.22;;;19.30;59.70;;;;;;5020363;28;20033;-67
2022/06/29 03:18:34;;;;;;;4.90;2.22;;;19.30;59.90;;;;;;5015657;28;20034;-67
2022/06/29 03:21:00;;;;;;;5.35;2.15;;;19.30;60.00;;;;;;5015411;28;20029;-67
2022/06/29 03:23:26;;;;;;;5.20;2.10;;;19.20;60.10;;;;;;5017681;28;20096;-67
2022/06/29 03:25:52;;;;;;;5.60;2.30;;;19.20;60.10;;;;;;5015982;28;20113;-69
2022/06/29 03:28:17;;;;;;;3.85;1.88;;;19.20;60.20;;;;;;5015138;28;20030;-69
2022/06/29 03:30:43;;;;;;;5.10;2.55;;;19.20;60.40;;;;;;5015847;28;20044;-69
2022/06/29 03:33:08;;;;;;;5.00;2.30;;;19.20;60.50;;;;;;5019340;28;20030;-69
2022/06/29 03:35:34;;;;;;;5.28;2.38;;;19.20;60.50;;;;;;5014743;28;20160;-69
2022/06/29 03:38:00;;;;;;;4.22;2.08;;;19.10;60.40;;;;;;5017197;28;20460;-69
2022/06/29 03:40:26;;;;;;;4.50;2.17;;;19.20;60.50;;;;;;5012156;28;20026;-69
2022/06/29 03:42:51;;;;;;;7.50;2.45;;;19.10;60.30;;;;;;5019716;28;20045;-69
2022/06/29 03:45:17;;;;;;;4.65;2.33;;;19.10;60.30;;;;;;5011353;28;20030;-69
2022/06/29 03:47:43;;;;;;;6.20;2.40;;;19.10;60.30;;;;;;5018249;28;20030;-69
2022/06/29 03:50:09;;;;;;;5.63;2.15;;;19.20;60.40;;;;;;5013810;28;20022;-70
2022/06/29 03:52:35;;;;;;;6.43;2.35;;;19.10;60.50;;;;;;5017964;28;20030;-69
2022/06/29 03:55:01;;;;;;;4.72;2.40;;;19.10;60.60;;;;;;5016218;28;20084;-68
2022/06/29 03:57:26;;;;;;;4.75;2.17;;;19.10;60.60;;;;;;5016551;28;20084;-70
2022/06/29 03:59:53;;;;;;;6.05;2.58;;;19.10;60.60;;;;;;4999346;28;20037;-68
2022/06/29 04:02:19;;;;;;;4.68;2.40;;;19.10;60.50;;;;;;5015787;28;20041;-68
2022/06/29 04:04:44;;;;;;;6.40;2.70;;;19.10;60.50;;;;;;5017113;28;20050;-67
2022/06/29 04:07:10;;;;;;;4.82;2.25;;;19.10;60.60;;;;;;5021441;28;20030;-68
2022/06/29 04:09:36;;;;;;;5.93;2.35;;;19.10;60.70;;;;;;5023582;28;20128;-68
2022/06/29 04:12:02;;;;;;;4.22;2.05;;;19.10;60.70;;;;;;5049811;28;20037;-68
2022/06/29 04:14:28;;;;;;;5.63;2.55;;;19.10;60.90;;;;;;5036691;28;20082;-68
2022/06/29 04:16:55;;;;;;;5.70;2.67;;;19.10;61.00;;;;;;5028706;28;20084;-68
2022/06/29 04:19:22;;;;;;;5.00;2.40;;;19.10;61.00;;;;;;5018488;28;20482;-68
2022/06/29 04:21:48;;;;;;;5.93;2.63;;;19.10;61.10;;;;;;5017941;28;20068;-68
2022/06/29 04:24:15;;;;;;;7.22;2.65;;;19.10;61.10;;;;;;5037423;28;20040;-68
2022/06/29 04:26:40;;;;;;;4.68;2.55;;;19.10;61.00;;;;;;5016997;28;20506;-68
2022/06/29 04:29:06;;;;;;;4.75;2.60;;;19.10;61.00;;;;;;5021983;28;20067;-68
2022/06/29 04:31:33;;;;;;;5.60;2.80;;;19.10;61.20;;;;;;5026478;28;20017;-68
2022/06/29 04:33:59;;;;;;;6.72;2.50;;;19.10;61.20;;;;;;5037537;28;20172;-68
2022/06/29 04:36:25;;;;;;;5.72;2.70;;;19.20;61.10;;;;;;5030143;28;20034;-68
2022/06/29 04:38:51;;;;;;;6.60;2.75;;;19.20;60.90;;;;;;5029474;28;20022;-68
2022/06/29 04:41:16;;;;;;;6.65;3.00;;;19.20;61.00;;;;;;5023826;28;20473;-68
2022/06/29 04:43:42;;;;;;;5.43;2.47;;;19.20;61.30;;;;;;5035713;28;20033;-68
2022/06/29 04:46:19;;;;;;;7.13;3.05;;;19.20;61.30;;;;;;5024396;28;20034;-68
2022/06/29 04:48:59;;;;;;;5.28;2.60;;;19.30;61.30;;;;;;5025177;28;20061;-68
2022/06/29 04:51:27;;;;;;;6.65;2.72;;;19.30;61.40;;;;;;5028270;28;20100;-68
2022/06/29 04:53:56;;;;;;;6.80;3.00;;;19.30;61.50;;;;;;5036503;28;20087;-68
2022/06/29 04:56:24;;;;;;;5.35;2.60;;;19.30;61.50;;;;;;5027633;28;20053;-68
2022/06/29 04:58:53;;;;;;;7.43;2.85;;;19.30;61.80;;;;;;5027701;28;20095;-68
2022/06/29 05:01:19;;;;;;;7.57;3.00;;;19.40;62.60;;;;;;5025448;28;20041;-68
2022/06/29 05:03:45;;;;;;;6.50;2.85;;;19.40;62.10;;;;;;5016558;28;20121;-68
2022/06/29 05:06:10;;;;;;;5.78;3.05;;;19.40;62.00;;;;;;5016953;28;20447;-68
2022/06/29 05:08:36;;;;;;;6.57;2.92;;;19.40;61.80;;;;;;5015779;28;20045;-69
2022/06/29 05:11:02;;;;;;;6.30;3.47;;;19.50;61.80;;;;;;5015040;28;20046;-67
2022/06/29 05:13:27;;;;;;;5.68;2.78;;;19.60;61.80;;;;;;5015626;28;20030;-68
2022/06/29 05:15:53;;;;;;;4.63;2.78;;;20.20;61.10;;;;;;5022379;28;20029;-69
2022/06/29 05:18:19;;;;;;;5.97;3.03;;;21.10;59.50;;;;;;5014835;28;20029;-69
2022/06/29 05:20:44;;;;;;;6.32;3.88;;;21.50;58.60;;;;;;5014586;28;20423;-68
2022/06/29 05:23:11;;;;;;;7.40;4.90;;;21.50;58.40;;;;;;5014465;28;20030;-68
2022/06/29 05:25:37;;;;;;;6.35;3.65;;;21.50;58.40;;;;;;5014305;28;20030;-68
2022/06/29 05:28:03;;;;;;;5.82;2.90;;;21.40;58.40;;;;;;5012412;28;20026;-68
2022/06/29 05:30:29;;;;;;;7.47;3.25;;;21.40;58.80;;;;;;5015665;28;20034;-68
2022/06/29 05:32:54;;;;;;;5.43;2.85;;;21.40;59.10;;;;;;5015138;28;20021;-68
2022/06/29 05:35:20;;;;;;;4.82;2.78;;;21.30;59.10;;;;;;5014877;28;20342;-68
2022/06/29 05:37:46;;;;;;;5.05;2.45;;;21.30;59.20;;;;;;5013313;28;20028;-68
2022/06/29 05:40:12;;;;;;;5.85;3.10;;;21.30;59.30;;;;;;5013158;28;20124;-68
2022/06/29 05:42:37;;;;;;;5.80;2.67;;;21.30;59.10;;;;;;5014131;28;20351;-69
2022/06/29 05:45:03;;;;;;;8.35;3.30;;;21.30;59.20;;;;;;5008725;28;20029;-68
2022/06/29 05:47:29;;;;;;;7.72;3.03;;;21.40;59.40;;;;;;5012564;28;20034;-69
2022/06/29 05:50:00;;;;;;;7.35;3.00;;;21.50;59.40;;;;;;5013775;28;20037;-67
2022/06/29 05:52:26;;;;;;;6.95;3.28;;;21.50;59.10;;;;;;5011997;28;20069;-68
2022/06/29 05:54:51;;;;;;;7.85;3.22;;;21.50;58.70;;;;;;5015631;28;20043;-68
2022/06/29 05:57:19;;;;;;;6.82;3.17;;;21.70;58.30;;;;;;5012615;28;20034;-68
2022/06/29 05:59:48;;;;;;;6.00;2.88;;;21.80;57.90;;;;;;4990110;28;20117;-68
2022/06/29 06:02:14;;;;;;;6.65;3.22;;;21.80;57.60;;;;;;5014392;28;20026;-67
2022/06/29 06:04:40;;;;;;;6.13;3.08;;;22.00;57.40;;;;;;5015539;28;20041;-69
2022/06/29 06:07:06;;;;;;;5.70;2.78;;;22.00;57.00;;;;;;5016180;28;20038;-67
2022/06/29 06:09:32;;;;;;;8.38;3.78;;;22.10;56.70;;;;;;5017204;28;20136;-67
2022/06/29 06:11:58;;;;;;;6.60;2.97;;;22.30;56.60;;;;;;5015668;28;20026;-67
2022/06/29 06:14:24;;;;;;;6.88;3.13;;;22.40;56.30;;;;;;5013202;28;20017;-67
2022/06/29 06:16:50;;;;;;;6.65;2.92;;;22.50;55.90;;;;;;5015835;28;20463;-67
2022/06/29 06:19:16;;;;;;;6.68;3.47;;;22.50;55.70;;;;;;5008360;28;20355;-68
2022/06/29 06:21:42;;;;;;;6.57;3.28;;;22.70;55.60;;;;;;5011023;28;20038;-68
2022/06/29 06:24:07;;;;;;;6.03;2.75;;;22.80;55.40;;;;;;5009593;28;20109;-68
2022/06/29 06:26:33;;;;;;;8.07;2.95;;;22.90;55.20;;;;;;5009969;28;20034;-68
2022/06/29 06:28:59;;;;;;;6.43;2.78;;;22.90;55.00;;;;;;5007677;28;20045;-68
2022/06/29 06:31:25;;;;;;;7.13;3.20;;;23.00;55.10;;;;;;5013266;28;20029;-68
2022/06/29 06:33:51;;;;;;;6.60;2.92;;;23.10;54.90;;;;;;5013489;28;20018;-68
2022/06/29 06:36:17;;;;;;;5.30;2.83;;;23.20;54.70;;;;;;5012571;28;20538;-68
2022/06/29 06:38:43;;;;;;;5.78;2.53;;;23.30;54.60;;;;;;4995626;28;20577;-68
2022/06/29 06:41:25;;;;;;;7.18;3.10;;;23.50;54.60;;;;;;5012917;28;20022;-67
2022/06/29 06:43:57;;;;;;;6.30;3.03;;;23.60;54.30;;;;;;5011602;28;20553;-68
2022/06/29 06:46:24;;;;;;;6.30;3.53;;;23.70;53.80;;;;;;5013658;28;20022;-67
2022/06/29 06:48:51;;;;;;;5.88;2.92;;;23.90;53.60;;;;;;5011490;28;20034;-67
2022/06/29 06:51:23;;;;;;;7.30;3.20;;;24.00;53.50;;;;;;5014493;28;20033;-67
2022/06/29 06:53:50;;;;;;;6.15;3.25;;;24.20;53.30;;;;;;5012719;28;20060;-67
2022/06/29 06:56:15;;;;;;;8.07;3.53;;;24.30;53.10;;;;;;5014132;28;20033;-66
2022/06/29 06:58:42;;;;;;;6.55;3.42;;;24.40;52.90;;;;;;5012107;28;20033;-66
2022/06/29 07:01:09;;;;;;;6.38;3.33;;;24.50;52.80;;;;;;5010963;28;20033;-66
2022/06/29 07:03:38;;;;;;;6.80;3.30;;;24.50;52.50;;;;;;5016673;28;20021;-66
2022/06/29 07:06:05;;;;;;;7.95;3.30;;;24.30;52.60;;;;;;5011850;28;20399;-66
2022/06/29 07:08:32;;;;;;;6.90;3.50;;;24.10;52.90;;;;;;5012300;28;20375;-67
2022/06/29 07:10:58;;;;;;;6.65;3.25;;;23.90;53.30;;;;;;5011783;28;20033;-67
2022/06/29 07:13:24;;;;;;;5.90;3.28;;;23.60;53.70;;;;;;5013422;28;20363;-66
2022/06/29 07:15:50;;;;;;;10.10;4.20;;;23.50;54.30;;;;;;5010078;28;20017;-67
2022/06/29 07:18:15;;;;;;;7.28;3.67;;;23.30;54.50;;;;;;5013026;28;20453;-67
2022/06/29 07:20:41;;;;;;;6.72;3.50;;;23.30;54.70;;;;;;5002262;28;20121;-69
2022/06/29 07:23:07;;;;;;;7.15;3.45;;;23.50;54.60;;;;;;5026639;28;20057;-69
2022/06/29 07:25:33;;;;;;;7.97;4.03;;;23.70;54.40;;;;;;5012335;28;20024;-68
2022/06/29 07:27:59;;;;;;;9.40;4.15;;;23.70;54.20;;;;;;5017617;28;20430;-69
2022/06/29 07:30:24;;;;;;;9.45;3.70;;;23.80;54.20;;;;;;5014511;28;20092;-69
2022/06/29 07:32:50;;;;;;;6.78;3.47;;;24.00;54.00;;;;;;5017181;28;20057;-69
2022/06/29 07:35:16;;;;;;;6.55;3.20;;;24.40;53.80;;;;;;5013662;28;20034;-69
2022/06/29 07:37:45;;;;;;;7.88;3.67;;;24.70;54.00;;;;;;5017226;28;20030;-69
2022/06/29 07:40:11;;;;;;;6.80;3.95;;;25.00;53.00;;;;;;5015716;28;20033;-69
2022/06/29 07:42:38;;;;;;;6.10;3.45;;;25.30;52.40;;;;;;5017307;28;20061;-68
2022/06/29 07:45:05;;;;;;;6.00;2.90;;;25.50;51.80;;;;;;5028931;28;20129;-68
2022/06/29 07:47:31;;;;;;;6.50;3.08;;;25.80;51.60;;;;;;5006175;28;20464;-69
2022/06/29 07:49:58;;;;;;;6.97;3.00;;;26.00;51.40;;;;;;5015496;28;20037;-69
2022/06/29 07:52:24;;;;;;;6.22;3.00;;;26.10;51.10;;;;;;5017544;28;20029;-69
2022/06/29 07:54:49;;;;;;;6.70;3.38;;;26.30;50.90;;;;;;5014540;28;20038;-67
2022/06/29 07:57:15;;;;;;;6.05;2.80;;;26.50;50.70;;;;;;5016847;28;20092;-67
2022/06/29 07:59:41;;;;;;;6.22;3.08;;;26.60;50.50;;;;;;5014809;28;20422;-67
2022/06/29 08:02:07;;;;;;;5.05;2.47;;;26.80;50.30;;;;;;5016218;28;20036;-67
2022/06/29 08:04:33;;;;;;;6.85;3.33;;;26.90;49.90;;;;;;5017984;28;20034;-67
2022/06/29 08:06:59;;;;;;;6.22;2.42;;;27.00;49.60;;;;;;5019217;28;20040;-67
2022/06/29 08:09:24;;;;;;;4.95;2.35;;;27.10;49.20;;;;;;5022624;28;20382;-68
2022/06/29 08:11:51;;;;;;;4.85;2.40;;;27.30;48.90;;;;;;5019088;28;20022;-67
2022/06/29 08:14:17;;;;;;;5.38;2.67;;;27.40;48.30;;;;;;5022438;28;20025;-67
2022/06/29 08:16:43;;;;;;;5.82;2.35;;;27.40;47.90;;;;;;5019213;28;20132;-67
2022/06/29 08:19:09;;;;;;;7.25;3.28;;;27.50;48.00;;;;;;5032840;28;20116;-68
2022/06/29 08:21:34;;;;;;;5.22;2.22;;;27.60;47.50;;;;;;5015490;28;20443;-68
2022/06/29 08:24:00;;;;;;;9.18;2.55;;;27.70;46.90;;;;;;5018830;28;20026;-68
2022/06/29 08:26:26;;;;;;;4.45;1.90;;;27.80;46.50;;;;;;5018119;28;20087;-68
2022/06/29 08:28:52;;;;;;;6.68;2.05;;;27.80;46.50;;;;;;5024420;28;20149;-68
2022/06/29 08:31:17;;;;;;;3.72;1.50;;;27.90;46.20;;;;;;5021548;28;20435;-68
2022/06/29 08:33:45;;;;;;;4.65;1.90;;;28.00;46.10;;;;;;5016456;28;20045;-68
2022/06/29 08:36:11;;;;;;;4.80;1.92;;;28.20;45.80;;;;;;5000479;28;20455;-67
2022/06/29 08:38:36;;;;;;;3.05;1.50;;;28.20;45.30;;;;;;5021192;28;20061;-68
2022/06/29 08:41:02;;;;;;;5.18;1.88;;;28.20;45.40;;;;;;5017583;28;20036;-67
2022/06/29 08:43:28;;;;;;;5.20;1.70;;;28.20;45.20;;;;;;5015530;28;20054;-67
2022/06/29 08:45:54;;;;;;;5.60;1.77;;;28.30;45.30;;;;;;5023089;28;20029;-67
2022/06/29 08:48:20;;;;;;;4.50;1.50;;;28.40;45.00;;;;;;5018920;28;20033;-67
2022/06/29 08:50:54;;;;;;;4.65;1.60;;;28.40;44.90;;;;;;5017961;28;20025;-67
2022/06/29 08:53:23;;;;;;;4.65;1.63;;;28.50;44.50;;;;;;5012773;28;20140;-67
2022/06/29 08:55:51;;;;;;;5.07;2.00;;;28.60;44.40;;;;;;5022544;28;20049;-68
2022/06/29 08:58:22;;;;;;;3.28;1.65;;;28.60;44.30;;;;;;5016018;28;20025;-68
2022/06/29 09:00:51;;;;;;;4.80;2.08;;;28.70;44.20;;;;;;5024400;28;20362;-68
2022/06/29 09:03:19;;;;;;;6.28;1.95;;;28.80;44.10;;;;;;5019666;28;20038;-68
2022/06/29 09:05:56;;;;;;;4.05;1.77;;;28.80;44.10;;;;;;5032641;28;20080;-68
2022/06/29 09:08:23;;;;;;;4.45;2.03;;;28.90;44.00;;;;;;5027842;28;20045;-68
2022/06/29 09:10:49;;;;;;;4.38;1.95;;;28.90;44.20;;;;;;5035784;28;20179;-67
2022/06/29 09:13:23;;;;;;;5.10;1.73;;;28.90;44.20;;;;;;5034323;28;20053;-68
2022/06/29 09:15:57;;;;;;;5.95;2.10;;;28.90;44.00;;;;;;5030094;28;20083;-68
2022/06/29 09:18:31;;;;;;;6.82;1.70;;;28.80;43.90;;;;;;5025977;28;20030;-68
2022/06/29 09:21:03;;;;;;;3.70;1.77;;;28.80;43.80;;;;;;5010768;28;20029;-68
2022/06/29 09:23:30;;;;;;;5.40;2.13;;;28.80;43.90;;;;;;5029348;28;20044;-68
2022/06/29 09:25:56;;;;;;;3.83;1.63;;;28.90;43.80;;;;;;5029271;28;20029;-68
2022/06/29 09:28:26;;;;;;;5.47;1.70;;;29.00;43.80;;;;;;5033295;28;20033;-68
2022/06/29 09:30:54;;;;;;;4.28;1.80;;;29.20;44.10;;;;;;5036034;28;20021;-68
2022/06/29 09:33:30;;;;;;;4.20;1.90;;;29.30;44.10;;;;;;5036454;28;20350;-68
2022/06/29 09:36:14;;;;;;;3.90;1.58;;;29.50;43.70;;;;;;5028871;28;20372;-68
2022/06/29 09:38:41;;;;;;;4.07;1.80;;;29.60;43.60;;;;;;5036341;28;20022;-68
2022/06/29 09:41:12;;;;;;;3.83;1.60;;;29.70;43.40;;;;;;5035276;28;20163;-68
2022/06/29 09:43:42;;;;;;;3.17;1.42;;;29.80;43.00;;;;;;5035197;28;20040;-68
2022/06/29 09:46:09;;;;;;;4.05;1.60;;;29.90;42.70;;;;;;5026735;28;20026;-68
2022/06/29 09:48:37;;;;;;;4.10;1.55;;;29.90;42.20;;;;;;5033762;28;20030;-68
2022/06/29 09:51:30;;;;;;;3.13;1.48;;;30.00;42.10;;;;;;5031955;28;20022;-68
2022/06/29 09:53:59;;;;;;;4.32;1.80;;;30.10;42.00;;;;;;5024837;28;20041;-69
2022/06/29 09:56:28;;;;;;;5.97;1.83;;;30.20;41.80;;;;;;5021460;28;20029;-68
2022/06/29 09:58:58;;;;;;;3.72;1.60;;;30.30;41.50;;;;;;5025892;28;20033;-68
2022/06/29 10:04:13;;;;;;;3.72;1.60;;;30.30;41.30;;;;;;5015379;28;20038;-68
2022/06/29 10:06:39;;;;;;;3.10;1.40;;;30.20;41.00;;;;;;5012560;28;20148;-67
2022/06/29 10:09:05;;;;;;;5.10;1.58;;;30.10;41.10;;;;;;5009964;28;20133;-67
2022/06/29 10:14:36;;;;;;;3.22;1.30;;;30.40;41.30;;;;;;5011461;28;20026;-68
2022/06/29 10:17:43;;;;;;;2.53;1.13;;;30.50;40.80;;;;;;5014151;28;20328;-68
2022/06/29 10:20:34;;;;;;;3.35;1.50;;;30.20;40.60;;;;;;5026435;28;20045;-65
2022/06/29 10:23:00;;;;;;;2.90;1.27;;;29.90;40.70;;;;;;5009586;28;20030;-64
2022/06/29 10:25:28;;;;;;;3.65;1.30;;;29.70;40.90;;;;;;5010010;28;20080;-65
2022/06/29 10:28:18;;;;;;;4.90;1.42;;;29.40;41.20;;;;;;5012239;28;20038;-65
2022/06/29 10:30:45;;;;;;;2.35;1.10;;;29.20;41.10;;;;;;5014795;28;20083;-63
2022/06/29 10:33:29;;;;;;;2.70;1.30;;;29.00;41.20;;;;;;5009944;28;20056;-66
2022/06/29 10:36:17;;;;;;;3.15;1.30;;;28.90;41.50;;;;;;5009941;28;20029;-66
2022/06/29 10:38:54;;;;;;;4.50;1.52;;;28.70;41.70;;;;;;5001129;28;20443;-66
2022/06/29 10:44:05;;;;;;;3.42;1.50;;;28.70;42.10;;;;;;5012410;28;20065;-66
2022/06/29 10:46:56;;;;;;;2.95;1.20;;;29.00;42.00;;;;;;5013506;28;20030;-69
2022/06/29 10:49:23;;;;;;;1.67;1.15;;;29.40;41.50;;;;;;5011370;28;20113;-69
2022/06/29 10:51:51;;;;;;;3.70;1.70;;;29.80;41.60;;;;;;5014781;28;20038;-69
2022/06/29 10:54:21;;;;;;;3.95;1.20;;;29.90;40.20;;;;;;5011809;28;20030;-69
2022/06/29 10:56:47;;;;;;;1.67;1.13;;;29.90;39.90;;;;;;5011972;28;20030;-69
2022/06/29 10:59:32;;;;;;;2.50;1.40;;;29.70;40.10;;;;;;5020762;28;20352;-69
2022/06/29 11:02:11;;;;;;;2.90;1.30;;;29.70;40.00;;;;;;5010799;28;20029;-68
2022/06/29 11:04:38;;;;;;;2.45;1.00;;;29.80;39.90;;;;;;5011425;28;20125;-69
2022/06/29 11:12:51;;;;;;;1.60;0.88;;;30.30;38.60;;;;;;5028547;28;20048;-69
2022/06/29 11:15:49;;;;;;;2.05;1.08;;;30.40;38.00;;;;;;5018482;28;20022;-68
2022/06/29 11:18:17;;;;;;;2.60;0.88;;;30.50;37.70;;;;;;5014130;28;20045;-69
2022/06/29 11:20:45;;;;;;;2.38;1.15;;;30.50;37.90;;;;;;5014501;28;20054;-69
2022/06/29 11:23:24;;;;;;;3.38;1.20;;;30.60;37.80;;;;;;5014888;28;20116;-69
2022/06/29 11:25:54;;;;;;;3.70;1.35;;;30.70;37.70;;;;;;5013537;28;20034;-68
2022/06/29 11:28:23;;;;;;;1.95;1.17;;;30.80;37.70;;;;;;5029010;28;20375;-69
2022/06/29 11:31:04;;;;;;;3.38;1.30;;;30.90;37.40;;;;;;5014103;28;20048;-67
2022/06/29 11:33:34;;;;;;;4.00;1.23;;;30.90;37.00;;;;;;5012605;28;20041;-68
2022/06/29 11:36:07;;;;;;;;;;;30.80;37.20;;;;;;5014518;28;20107;-68
2022/06/29 11:38:38;;;;;;;3.50;1.13;;;30.70;37.60;;;;;;5013444;28;19964;-68
2022/06/29 11:41:12;;;;;;;2.70;1.10;;;30.60;37.20;;;;;;5013661;28;20037;-68
2022/06/29 11:43:38;;;;;;;3.97;1.48;;;30.50;36.90;;;;;;5013360;28;20356;-68
2022/06/29 11:46:03;;;;;;;2.30;1.20;;;30.50;37.30;;;;;;5014487;28;20063;-66
2022/06/29 11:48:31;;;;;;;2.97;1.20;;;30.50;37.30;;;;;;5013009;28;20045;-70
2022/06/29 11:50:59;;;;;;;2.65;1.30;;;30.50;37.30;;;;;;5013239;28;20037;-70
2022/06/29 11:53:45;;;;;;;4.32;1.40;;;30.50;37.20;;;;;;5008158;28;20034;-70
2022/06/29 11:56:13;;;;;;;2.40;1.17;;;30.40;37.40;;;;;;5014509;28;20033;-69
2022/06/29 11:58:44;;;;;;;2.72;1.30;;;30.40;37.80;;;;;;5013756;28;20026;-70
2022/06/29 12:01:13;;;;;;;2.47;1.30;;;30.50;37.70;;;;;;5012513;28;20046;-70
2022/06/29 12:03:47;;;;;;;2.00;1.17;;;30.50;37.60;;;;;;5017362;28;20022;-69
2022/06/29 12:06:14;;;;;;;3.60;1.40;;;30.40;37.60;;;;;;5026769;28;20057;-70
2022/06/29 12:08:40;;;;;;;3.72;1.50;;;30.40;37.90;;;;;;5022663;28;20038;-69
2022/06/29 12:11:06;;;;;;;4.10;1.50;;;30.40;37.80;;;;;;5018054;28;20510;-69
2022/06/29 12:13:31;;;;;;;2.53;1.10;;;30.20;37.80;;;;;;5016492;28;20072;-69
2022/06/29 12:15:57;;;;;;;2.20;1.00;;;30.00;37.90;;;;;;5017822;28;20447;-69
2022/06/29 12:18:23;;;;;;;4.03;1.40;;;30.00;38.30;;;;;;5016860;28;20030;-69
2022/06/29 12:20:49;;;;;;;3.50;1.50;;;29.90;38.70;;;;;;5016737;28;20080;-69
2022/06/29 12:23:15;;;;;;;3.35;1.63;;;29.70;38.20;;;;;;5016711;28;20502;-69
2022/06/29 12:25:40;;;;;;;1.80;0.90;;;29.60;38.20;;;;;;5016576;28;20026;-69
2022/06/29 12:28:06;;;;;;;4.32;1.27;;;29.40;38.40;;;;;;5017588;28;20053;-69
2022/06/29 12:30:32;;;;;;;2.45;1.45;;;29.40;38.90;;;;;;5016964;28;20026;-69
2022/06/29 12:32:58;;;;;;;4.05;1.50;;;29.50;38.90;;;;;;5017647;28;20033;-70
2022/06/29 12:35:24;;;;;;;3.95;1.60;;;29.50;38.90;;;;;;5016799;28;20037;-69
2022/06/29 12:37:53;;;;;;;2.17;1.23;;;29.50;39.00;;;;;;5017357;28;20068;-69
2022/06/29 12:40:19;;;;;;;3.72;1.40;;;29.30;39.00;;;;;;5015470;28;20034;-69
2022/06/29 12:42:44;;;;;;;3.10;1.23;;;29.20;39.20;;;;;;5017563;28;20128;-69
2022/06/29 12:45:10;;;;;;;3.28;1.38;;;29.20;39.40;;;;;;5016652;28;20404;-69
2022/06/29 12:47:36;;;;;;;5.05;1.70;;;29.20;39.60;;;;;;5015867;28;20150;-69
2022/06/29 12:50:02;;;;;;;3.85;1.58;;;29.20;39.70;;;;;;5012432;28;20169;-70
2022/06/29 12:52:28;;;;;;;2.60;1.50;;;29.30;39.40;;;;;;5012536;28;20029;-69
2022/06/29 12:54:54;;;;;;;3.95;1.65;;;29.20;39.30;;;;;;5014933;28;20021;-73
2022/06/29 12:57:20;;;;;;;3.17;1.45;;;29.20;39.70;;;;;;5014146;28;20025;-71
2022/06/29 12:59:45;;;;;;;3.40;1.65;;;29.10;39.80;;;;;;5029017;28;20113;-72
2022/06/29 13:02:12;;;;;;;4.97;1.60;;;29.10;39.60;;;;;;5008729;28;20091;-71
2022/06/29 13:04:38;;;;;;;3.22;1.55;;;29.00;39.50;;;;;;5029048;28;20026;-72
2022/06/29 13:07:04;;;;;;;3.05;1.63;;;28.90;39.50;;;;;;5019152;28;20037;-72